Time;durP1;ratioP1;P1;durP2;ratioP2;P2;SDS_P1;SDS_P2;PMS_P1;PMS_P2;Temp;Humidity;BMP_temperature;BMP_pressure;BME280_temperature;BME280_humidity;BME280_pressure;Samples;Min_cycle;Max_cycle;Signal;HPM_P1;HPM_P2
2022/09/21 00:01:54;;;;;;;6.40;4.90;;;11.50;99.90;;;;;;10360991;28;20197;-77
2022/09/21 00:06:56;;;;;;;9.17;5.90;;;11.40;99.90;;;;;;10346400;28;20242;-77
2022/09/21 00:11:58;;;;;;;7.90;5.37;;;11.40;99.90;;;;;;10361421;28;20518;-77
2022/09/21 00:17:02;;;;;;;5.63;5.13;;;11.30;99.90;;;;;;10333309;28;20692;-77
2022/09/21 00:22:04;;;;;;;6.53;5.60;;;11.30;99.90;;;;;;10346705;28;20604;-77
2022/09/21 00:27:06;;;;;;;5.77;4.60;;;11.30;99.90;;;;;;10365050;28;20242;-77
2022/09/21 00:32:09;;;;;;;29.97;14.73;;;11.20;99.90;;;;;;10330467;28;20194;-78
2022/09/21 00:37:11;;;;;;;58.50;24.77;;;11.10;99.90;;;;;;10365862;28;20294;-77
2022/09/21 00:42:18;;;;;;;10.17;7.40;;;11.10;99.90;;;;;;10346570;28;20701;-77
2022/09/21 00:47:26;;;;;;;17.10;9.67;;;11.10;99.90;;;;;;10363090;28;20227;-77
2022/09/21 00:52:32;;;;;;;7.80;5.93;;;11.10;99.90;;;;;;10348627;28;20198;-77
2022/09/21 00:57:35;;;;;;;6.27;5.67;;;11.10;99.90;;;;;;10368036;28;20280;-77
2022/09/21 01:02:39;;;;;;;14.80;9.67;;;11.10;99.90;;;;;;10343034;28;20230;-77
2022/09/21 01:07:44;;;;;;;37.07;17.27;;;11.10;99.90;;;;;;10346934;28;20222;-77
2022/09/21 01:13:04;;;;;;;31.60;16.10;;;11.00;99.90;;;;;;10365028;28;20206;-78
2022/09/21 01:18:15;;;;;;;7.80;7.10;;;11.00;99.90;;;;;;10355948;28;20224;-77
2022/09/21 01:23:35;;;;;;;6.57;6.07;;;11.00;99.90;;;;;;10361413;28;20203;-77
2022/09/21 01:29:06;;;;;;;8.37;6.73;;;10.90;99.90;;;;;;10350111;28;20218;-77
2022/09/21 01:34:14;;;;;;;7.53;6.73;;;10.90;99.90;;;;;;10355958;28;20201;-78
2022/09/21 01:39:21;;;;;;;7.30;6.70;;;10.90;99.90;;;;;;10354342;28;20195;-77
2022/09/21 01:44:31;;;;;;;8.80;6.73;;;10.90;99.90;;;;;;10353947;28;20225;-78
2022/09/21 01:49:37;;;;;;;7.70;7.00;;;10.90;99.90;;;;;;10354356;28;20461;-77
2022/09/21 01:54:43;;;;;;;6.73;6.10;;;10.90;99.90;;;;;;10353769;28;20219;-78
2022/09/21 01:59:52;;;;;;;6.47;5.97;;;10.90;99.90;;;;;;10351294;28;20192;-78
2022/09/21 02:04:54;;;;;;;7.00;6.40;;;10.90;99.90;;;;;;10355651;28;20218;-77
2022/09/21 02:09:57;;;;;;;11.97;7.20;;;10.90;99.90;;;;;;10373989;28;20214;-78
2022/09/21 02:15:01;;;;;;;7.60;6.90;;;10.80;99.90;;;;;;10354367;28;20226;-77
2022/09/21 02:20:16;;;;;;;7.73;7.13;;;10.80;99.90;;;;;;10356779;28;20210;-77
2022/09/21 02:25:24;;;;;;;7.10;6.50;;;10.80;99.90;;;;;;10380080;28;20214;-76
2022/09/21 02:30:27;;;;;;;7.50;6.90;;;10.80;99.90;;;;;;10351563;28;20195;-78
2022/09/21 02:35:36;;;;;;;7.83;7.10;;;10.70;99.90;;;;;;10354169;28;20218;-78
2022/09/21 02:40:43;;;;;;;7.00;6.40;;;10.70;99.90;;;;;;10351285;28;20195;-78
2022/09/21 02:45:52;;;;;;;7.47;6.77;;;10.60;99.90;;;;;;10324285;28;20212;-77
2022/09/21 02:50:59;;;;;;;8.30;7.53;;;10.60;99.90;;;;;;10341734;28;20198;-77
2022/09/21 02:56:04;;;;;;;7.50;6.77;;;10.60;99.90;;;;;;10362020;28;20213;-77
2022/09/21 03:01:11;;;;;;;7.30;6.70;;;10.50;99.90;;;;;;10352932;28;20200;-78
2022/09/21 03:06:13;;;;;;;8.07;7.30;;;10.50;99.90;;;;;;10348369;28;20328;-78
2022/09/21 03:11:16;;;;;;;7.13;6.43;;;10.50;99.90;;;;;;10353509;28;20202;-77
2022/09/21 03:16:20;;;;;;;17.27;10.60;;;10.50;99.90;;;;;;10370169;28;20752;-78
2022/09/21 03:21:23;;;;;;;26.57;15.90;;;10.50;99.90;;;;;;10355869;28;20199;-76
2022/09/21 03:26:25;;;;;;;20.43;13.30;;;10.40;99.90;;;;;;10363139;28;20560;-77
2022/09/21 03:31:28;;;;;;;9.37;8.57;;;10.40;99.90;;;;;;10354816;28;20211;-77
2022/09/21 03:36:30;;;;;;;9.00;8.10;;;10.40;99.90;;;;;;10360210;28;20691;-77
2022/09/21 03:41:33;;;;;;;9.10;8.30;;;10.40;99.90;;;;;;10358957;28;20283;-77
2022/09/21 03:46:37;;;;;;;11.37;10.27;;;10.40;99.90;;;;;;10339383;28;20215;-78
2022/09/21 03:51:39;;;;;;;9.73;8.93;;;10.50;99.90;;;;;;10359626;28;20286;-77
2022/09/21 03:56:41;;;;;;;10.23;9.43;;;10.50;99.90;;;;;;10371307;28;20265;-77
2022/09/21 04:01:45;;;;;;;10.33;9.40;;;10.40;99.90;;;;;;10358182;28;20277;-77
2022/09/21 04:06:47;;;;;;;10.80;9.90;;;10.40;99.90;;;;;;10353596;28;20218;-77
2022/09/21 04:11:49;;;;;;;12.13;10.40;;;10.40;99.90;;;;;;10355682;28;20195;-77
2022/09/21 04:16:52;;;;;;;10.93;10.00;;;10.40;99.90;;;;;;10357922;28;20221;-77
2022/09/21 04:21:55;;;;;;;12.33;11.17;;;10.40;99.90;;;;;;10359176;28;20203;-77
2022/09/21 04:26:57;;;;;;;10.73;9.93;;;10.30;99.90;;;;;;10357848;28;20707;-78
2022/09/21 04:32:00;;;;;;;16.00;11.77;;;10.30;99.90;;;;;;10358898;28;20203;-78
2022/09/21 04:37:02;;;;;;;14.20;12.90;;;10.30;99.90;;;;;;10358262;28;20652;-78
2022/09/21 04:42:04;;;;;;;63.57;45.67;;;10.30;99.90;;;;;;10366988;28;20205;-78
2022/09/21 04:47:08;;;;;;;21.20;19.10;;;10.20;99.90;;;;;;10352929;28;20249;-78
2022/09/21 04:52:10;;;;;;;20.03;15.87;;;10.20;99.90;;;;;;10360132;28;20187;-77
2022/09/21 04:57:12;;;;;;;31.30;28.40;;;10.20;99.90;;;;;;10339485;28;20211;-78
2022/09/21 05:02:16;;;;;;;32.27;29.53;;;10.10;99.90;;;;;;10356053;28;20671;-78
2022/09/21 05:07:18;;;;;;;22.80;21.00;;;10.10;99.90;;;;;;10344147;28;20207;-77
2022/09/21 05:12:20;;;;;;;21.80;19.87;;;10.00;99.90;;;;;;10330335;28;20196;-78
2022/09/21 05:17:24;;;;;;;14.10;12.67;;;10.00;99.90;;;;;;10333760;28;20222;-77
2022/09/21 05:22:27;;;;;;;19.37;17.37;;;10.00;99.90;;;;;;10389413;28;20614;-79
2022/09/21 05:27:29;;;;;;;11.77;10.97;;;10.00;99.90;;;;;;10373095;28;20222;-78
2022/09/21 05:32:42;;;;;;;11.17;10.30;;;10.00;99.90;;;;;;10354703;28;20197;-78
2022/09/21 05:37:51;;;;;;;14.10;11.50;;;10.00;99.90;;;;;;10364676;28;20219;-78
2022/09/21 05:42:55;;;;;;;13.53;12.33;;;10.00;99.90;;;;;;10356594;28;20202;-78
2022/09/21 05:48:07;;;;;;;12.97;11.60;;;10.10;99.90;;;;;;10365331;28;20231;-78
2022/09/21 05:53:39;;;;;;;14.63;13.23;;;10.10;99.90;;;;;;10356141;28;20832;-78
2022/09/21 05:58:49;;;;;;;13.93;12.93;;;10.10;99.90;;;;;;10370821;28;20233;-78
2022/09/21 06:03:53;;;;;;;12.47;11.43;;;10.10;99.90;;;;;;10357261;28;20675;-78
2022/09/21 06:08:56;;;;;;;15.47;14.07;;;10.10;99.90;;;;;;10356084;28;20245;-77
2022/09/21 06:13:58;;;;;;;12.90;11.90;;;10.20;99.90;;;;;;10372969;28;20175;-77
2022/09/21 06:19:01;;;;;;;14.20;12.07;;;10.20;99.90;;;;;;10371571;28;20222;-77
2022/09/21 06:24:03;;;;;;;14.13;12.73;;;10.20;99.90;;;;;;10373390;28;20191;-77
2022/09/21 06:29:05;;;;;;;17.37;15.90;;;10.20;99.90;;;;;;10351041;28;20226;-77
2022/09/21 06:34:09;;;;;;;15.67;14.20;;;10.30;99.90;;;;;;10348920;28;20193;-76
2022/09/21 06:39:11;;;;;;;15.37;11.80;;;10.30;99.90;;;;;;10369426;28;20221;-77
2022/09/21 06:44:13;;;;;;;14.17;12.60;;;10.40;99.90;;;;;;10368325;28;20205;-78
2022/09/21 06:49:16;;;;;;;15.30;13.80;;;10.40;99.90;;;;;;10369103;28;20218;-77
2022/09/21 06:54:18;;;;;;;20.90;12.77;;;10.50;99.90;;;;;;10354408;28;20206;-77
2022/09/21 06:59:20;;;;;;;17.20;12.60;;;10.50;99.90;;;;;;10353112;28;20192;-77
2022/09/21 07:04:24;;;;;;;12.77;11.47;;;10.60;99.90;;;;;;10354347;28;20198;-77
2022/09/21 07:09:26;;;;;;;17.00;14.07;;;10.70;99.90;;;;;;10357294;28;20207;-78
2022/09/21 07:14:28;;;;;;;14.27;13.07;;;10.80;99.90;;;;;;10352115;28;20246;-77
2022/09/21 07:19:32;;;;;;;13.43;12.33;;;10.90;99.90;;;;;;10359536;28;20299;-78
2022/09/21 07:24:34;;;;;;;14.73;13.43;;;10.90;99.90;;;;;;10351150;28;20214;-78
2022/09/21 07:29:36;;;;;;;14.73;13.43;;;11.00;99.90;;;;;;10358816;28;20219;-77
2022/09/21 07:34:39;;;;;;;15.20;13.80;;;11.10;99.90;;;;;;10352195;28;20322;-78
2022/09/21 07:39:41;;;;;;;14.90;13.53;;;11.20;99.90;;;;;;10359559;28;20680;-77
2022/09/21 07:44:43;;;;;;;16.13;14.53;;;11.30;99.90;;;;;;10350504;28;20214;-77
2022/09/21 07:49:47;;;;;;;13.47;12.33;;;11.40;99.90;;;;;;10360274;28;20332;-77
2022/09/21 07:54:49;;;;;;;14.10;13.00;;;11.50;99.90;;;;;;10349316;28;20301;-78
2022/09/21 07:59:51;;;;;;;14.60;13.33;;;11.60;99.90;;;;;;10349871;28;20233;-78
2022/09/21 08:04:54;;;;;;;14.00;12.70;;;11.70;99.90;;;;;;10362056;28;20219;-77
2022/09/21 08:09:57;;;;;;;12.03;10.93;;;11.80;99.90;;;;;;10348144;28;20222;-78
2022/09/21 08:14:59;;;;;;;14.37;13.17;;;11.90;99.90;;;;;;10360107;28;20778;-78
2022/09/21 08:20:03;;;;;;;13.20;11.77;;;12.00;99.90;;;;;;10329560;28;20205;-78
2022/09/21 08:25:06;;;;;;;13.23;12.03;;;12.10;99.90;;;;;;10361900;28;20223;-77
2022/09/21 08:30:12;;;;;;;13.20;12.10;;;12.20;99.90;;;;;;10348159;28;20305;-78
2022/09/21 08:35:17;;;;;;;17.43;15.20;;;12.30;99.90;;;;;;10361601;28;20278;-77
2022/09/21 08:40:20;;;;;;;13.90;12.50;;;12.40;99.90;;;;;;10346817;28;20644;-77
2022/09/21 08:45:25;;;;;;;13.07;11.70;;;12.50;99.90;;;;;;10361549;28;20281;-78
2022/09/21 08:50:34;;;;;;;13.00;11.90;;;12.60;99.90;;;;;;10344563;28;20272;-77
2022/09/21 08:55:36;;;;;;;11.60;10.67;;;12.70;99.90;;;;;;10364843;28;20293;-77
2022/09/21 09:00:41;;;;;;;12.10;11.00;;;12.80;99.90;;;;;;10359744;28;20195;-77
2022/09/21 09:05:51;;;;;;;11.40;10.40;;;12.90;99.90;;;;;;10344221;28;20215;-77
2022/09/21 09:11:05;;;;;;;10.30;9.53;;;13.00;99.90;;;;;;10358738;28;20250;-78
2022/09/21 09:16:17;;;;;;;9.17;8.47;;;13.10;99.90;;;;;;10373423;22;20356;-79
2022/09/21 09:21:24;;;;;;;8.97;8.27;;;13.30;99.90;;;;;;10435072;28;20268;-79
2022/09/21 09:26:32;;;;;;;7.80;7.17;;;13.40;99.90;;;;;;10412229;28;20301;-77
2022/09/21 09:31:35;;;;;;;8.57;7.97;;;13.50;99.90;;;;;;10391750;28;20681;-79
2022/09/21 09:36:43;;;;;;;8.20;7.70;;;13.60;99.90;;;;;;10403142;28;20222;-79
2022/09/21 09:42:00;;;;;;;7.80;7.30;;;13.80;99.90;;;;;;10378448;28;20192;-79
2022/09/21 09:47:12;;;;;;;7.33;6.90;;;14.00;99.90;;;;;;10398661;28;20238;-79
2022/09/21 09:52:16;;;;;;;6.60;6.10;;;14.00;99.90;;;;;;10403659;28;20284;-79
2022/09/21 09:57:27;;;;;;;7.60;7.10;;;14.20;99.90;;;;;;10404797;28;20681;-79
2022/09/21 10:02:30;;;;;;;6.30;6.00;;;14.30;99.90;;;;;;10404236;28;20709;-79
2022/09/21 10:07:39;;;;;;;6.97;6.37;;;14.30;99.90;;;;;;10380471;28;20267;-79
2022/09/21 10:12:46;;;;;;;6.23;5.83;;;14.40;99.90;;;;;;10399863;28;20199;-79
2022/09/21 10:17:49;;;;;;;6.80;6.40;;;14.40;99.90;;;;;;10398670;28;20261;-79
2022/09/21 10:22:56;;;;;;;6.67;6.27;;;14.40;99.90;;;;;;10392988;28;20666;-79
2022/09/21 10:28:01;;;;;;;6.90;6.40;;;14.40;99.90;;;;;;10377229;28;20238;-78
2022/09/21 10:33:04;;;;;;;6.40;5.90;;;14.50;99.90;;;;;;10401213;28;20195;-79
2022/09/21 10:38:16;;;;;;;6.97;6.47;;;14.60;99.90;;;;;;10393964;28;20260;-78
2022/09/21 10:43:25;;;;;;;5.23;4.83;;;14.70;99.60;;;;;;10394979;28;20624;-79
2022/09/21 10:48:28;;;;;;;5.40;5.10;;;14.70;99.90;;;;;;10410750;28;20224;-78
2022/09/21 10:53:34;;;;;;;5.60;5.20;;;14.70;99.90;;;;;;10410270;28;20193;-78
2022/09/21 10:58:36;;;;;;;5.13;4.83;;;14.80;98.60;;;;;;10395810;28;20217;-79
2022/09/21 11:03:47;;;;;;;3.03;2.93;;;15.00;97.80;;;;;;10404960;28;20204;-78
2022/09/21 11:08:56;;;;;;;5.40;5.20;;;15.10;95.70;;;;;;10405697;28;20229;-78
2022/09/21 11:14:05;;;;;;;5.30;5.10;;;15.10;97.10;;;;;;10402811;28;20221;-78
2022/09/21 11:19:17;;;;;;;4.00;3.70;;;15.20;97.30;;;;;;10399206;28;20712;-78
2022/09/21 11:24:30;;;;;;;5.30;5.00;;;15.30;96.40;;;;;;10386122;28;20226;-78
2022/09/21 11:29:38;;;;;;;5.87;5.30;;;15.60;96.40;;;;;;10394891;28;20694;-78
2022/09/21 11:35:07;;;;;;;5.27;5.07;;;15.90;94.70;;;;;;10406007;28;20646;-78
2022/09/21 11:40:37;;;;;;;5.70;5.50;;;16.00;95.50;;;;;;10395825;28;20568;-79
2022/09/21 11:45:59;;;;;;;5.40;5.20;;;16.00;94.10;;;;;;10412360;28;20716;-78
2022/09/21 11:51:13;;;;;;;5.37;4.90;;;15.90;95.20;;;;;;10399118;28;20639;-78
2022/09/21 11:56:42;;;;;;;6.00;5.70;;;15.80;94.20;;;;;;10416876;28;20222;-78
2022/09/21 12:01:59;;;;;;;5.00;4.77;;;15.60;95.90;;;;;;10429355;28;20186;-79
2022/09/21 12:07:14;;;;;;;5.53;5.33;;;15.50;95.80;;;;;;10391583;28;20222;-78
2022/09/21 12:12:22;;;;;;;5.00;4.70;;;15.50;97.40;;;;;;10350771;28;20375;-78
2022/09/21 12:17:33;;;;;;;3.07;2.87;;;15.50;95.60;;;;;;10352629;28;20494;-79
2022/09/21 12:22:40;;;;;;;3.80;3.60;;;15.70;96.10;;;;;;10429385;28;20198;-78
2022/09/21 12:27:47;;;;;;;3.33;3.23;;;15.70;96.60;;;;;;10390917;28;20223;-78
2022/09/21 12:32:58;;;;;;;4.17;3.87;;;15.60;96.60;;;;;;10424915;28;20204;-78
2022/09/21 12:38:08;;;;;;;3.60;3.50;;;15.50;96.60;;;;;;10387590;28;20221;-78
2022/09/21 12:43:23;;;;;;;4.03;3.93;;;15.40;96.30;;;;;;10422481;28;20197;-78
2022/09/21 12:48:32;;;;;;;2.80;2.70;;;15.40;94.50;;;;;;10389253;28;20214;-78
2022/09/21 12:53:37;;;;;;;3.40;3.27;;;15.40;95.90;;;;;;10417429;28;20209;-78
2022/09/21 12:59:05;;;;;;;3.60;3.40;;;15.60;95.30;;;;;;10407590;28;20238;-78
2022/09/21 13:04:20;;;;;;;4.10;3.90;;;15.80;94.60;;;;;;10398343;28;20257;-79
2022/09/21 13:09:23;;;;;;;3.57;3.33;;;16.00;94.20;;;;;;10416080;28;20694;-78
2022/09/21 13:14:29;;;;;;;3.30;3.20;;;16.20;92.40;;;;;;10378451;28;20285;-79
2022/09/21 13:19:33;;;;;;;3.60;3.50;;;16.20;94.10;;;;;;10413259;28;20215;-78
2022/09/21 13:24:35;;;;;;;3.90;3.80;;;16.20;91.30;;;;;;10391388;28;20226;-78
2022/09/21 13:29:40;;;;;;;2.27;2.17;;;16.10;93.10;;;;;;10416199;28;20232;-78
2022/09/21 13:34:44;;;;;;;3.80;3.60;;;16.10;91.10;;;;;;10392074;28;20252;-78
2022/09/21 13:39:51;;;;;;;4.10;4.00;;;16.10;91.40;;;;;;10415476;28;20261;-78
2022/09/21 13:44:54;;;;;;;4.23;4.03;;;16.00;92.10;;;;;;10392661;28;20727;-78
2022/09/21 13:49:57;;;;;;;3.40;3.30;;;16.00;92.50;;;;;;10424746;28;20210;-79
2022/09/21 13:55:03;;;;;;;4.67;4.37;;;15.90;92.90;;;;;;10421019;28;20254;-79
2022/09/21 14:00:30;;;;;;;3.93;3.53;;;15.80;92.40;;;;;;10366415;28;20272;-79
2022/09/21 14:05:39;;;;;;;4.20;4.00;;;15.80;91.70;;;;;;10420279;28;20437;-79
2022/09/21 14:10:52;;;;;;;3.70;3.50;;;15.80;93.20;;;;;;10389331;28;20214;-78
2022/09/21 14:15:55;;;;;;;2.70;2.50;;;15.90;93.30;;;;;;10404964;28;20225;-79
2022/09/21 14:21:30;;;;;;;5.03;4.73;;;15.90;94.70;;;;;;10416798;28;20194;-79
2022/09/21 14:26:46;;;;;;;4.23;4.10;;;15.80;92.90;;;;;;10300205;28;20241;-79
2022/09/21 14:31:55;;;;;;;3.20;3.10;;;15.80;94.20;;;;;;10412127;28;20241;-79
2022/09/21 14:37:01;;;;;;;4.00;3.60;;;15.90;93.00;;;;;;10410556;28;20213;-79
2022/09/21 14:42:11;;;;;;;4.00;3.80;;;16.00;92.50;;;;;;10414542;28;20214;-79
2022/09/21 14:47:51;;;;;;;3.90;3.70;;;16.10;92.60;;;;;;10411118;28;20747;-79
2022/09/21 14:53:18;;;;;;;4.10;3.90;;;16.00;92.80;;;;;;10384671;28;20205;-79
2022/09/21 14:58:38;;;;;;;4.00;3.80;;;15.90;94.70;;;;;;10358909;28;20719;-78
2022/09/21 15:03:57;;;;;;;3.40;3.20;;;15.90;95.80;;;;;;10413935;28;20197;-79
2022/09/21 15:14:49;;;;;;;3.40;3.30;;;15.90;90.60;;;;;;10404901;28;20193;-79
2022/09/21 15:19:59;;;;;;;3.90;3.70;;;15.90;93.70;;;;;;10388925;28;20205;-79
2022/09/21 15:25:04;;;;;;;4.50;4.30;;;15.90;93.60;;;;;;10407517;28;20201;-78
2022/09/21 15:30:18;;;;;;;4.30;4.10;;;15.90;91.50;;;;;;10385513;28;20211;-79
2022/09/21 15:35:26;;;;;;;4.07;3.93;;;15.90;90.90;;;;;;10419920;28;20214;-78
2022/09/21 15:40:30;;;;;;;4.70;4.50;;;15.90;91.60;;;;;;10366522;28;20195;-78
2022/09/21 15:45:53;;;;;;;4.27;4.17;;;15.90;91.70;;;;;;10418365;28;20932;-79
2022/09/21 15:51:03;;;;;;;4.30;4.10;;;15.90;88.80;;;;;;10381875;28;20297;-80
2022/09/21 15:56:07;;;;;;;4.87;4.67;;;15.90;92.00;;;;;;10346448;28;20718;-80
2022/09/21 16:01:12;;;;;;;4.10;3.90;;;15.80;91.50;;;;;;10407978;28;20186;-81
2022/09/21 16:06:25;;;;;;;4.67;4.47;;;15.80;93.10;;;;;;10388028;28;20241;-80
2022/09/21 16:11:37;;;;;;;4.60;4.40;;;15.80;93.80;;;;;;10421109;28;20304;-80
2022/09/21 16:17:18;;;;;;;3.80;3.70;;;15.80;91.20;;;;;;10369303;28;20230;-81
2022/09/21 16:22:26;;;;;;;4.20;4.00;;;15.70;93.40;;;;;;10418976;28;20202;-80
2022/09/21 16:27:31;;;;;;;4.30;4.10;;;15.70;93.80;;;;;;10371907;28;20233;-81
2022/09/21 16:32:34;;;;;;;3.20;3.10;;;15.60;92.70;;;;;;10413999;28;20241;-80
2022/09/21 16:37:40;;;;;;;3.97;3.80;;;15.60;95.30;;;;;;10381445;28;20248;-80
2022/09/21 16:42:44;;;;;;;3.80;3.60;;;15.60;95.30;;;;;;10396520;28;20198;-81
2022/09/21 16:47:46;;;;;;;3.90;3.80;;;15.50;94.50;;;;;;10409543;28;20266;-81
2022/09/21 16:52:51;;;;;;;4.90;4.60;;;15.40;95.70;;;;;;10380654;28;20755;-81
2022/09/21 16:57:53;;;;;;;4.43;4.13;;;15.40;96.60;;;;;;10394622;28;20226;-80
2022/09/21 17:02:55;;;;;;;4.83;4.43;;;15.30;94.00;;;;;;10381317;28;20194;-80
2022/09/21 17:07:59;;;;;;;5.07;4.80;;;15.30;94.30;;;;;;10392861;28;20233;-81
2022/09/21 17:13:03;;;;;;;5.00;4.80;;;15.20;92.80;;;;;;10381990;28;20980;-80
2022/09/21 17:18:05;;;;;;;4.60;4.20;;;15.20;93.40;;;;;;10412151;28;20588;-81
2022/09/21 17:23:09;;;;;;;4.17;3.90;;;15.10;93.30;;;;;;10381082;28;20283;-81
2022/09/21 17:28:14;;;;;;;4.90;4.60;;;15.00;93.30;;;;;;10412090;28;20226;-81
2022/09/21 17:33:18;;;;;;;9.57;8.47;;;14.80;93.90;;;;;;10381620;28;20214;-81
2022/09/21 17:38:22;;;;;;;40.43;25.80;;;14.70;94.20;;;;;;10394798;28;20246;-81
2022/09/21 17:43:36;;;;;;;25.07;18.10;;;14.60;94.70;;;;;;10361518;28;20573;-81
2022/09/21 17:48:40;;;;;;;18.87;15.10;;;14.50;94.50;;;;;;10382646;28;20222;-80
2022/09/21 17:53:44;;;;;;;10.47;8.70;;;14.40;95.00;;;;;;10406816;28;20198;-81
2022/09/21 17:58:51;;;;;;;5.33;4.93;;;14.30;95.40;;;;;;10385042;28;20687;-80
2022/09/21 18:03:54;;;;;;;5.80;5.40;;;14.20;94.10;;;;;;10386098;28;20217;-81
2022/09/21 18:08:58;;;;;;;5.70;5.40;;;14.20;94.60;;;;;;10407424;28;20215;-81
2022/09/21 18:14:09;;;;;;;5.23;4.93;;;14.10;94.50;;;;;;10365587;28;20672;-81
2022/09/21 18:19:29;;;;;;;4.93;4.60;;;14.00;94.10;;;;;;10406072;28;20308;-80
2022/09/21 18:24:33;;;;;;;7.23;6.53;;;13.90;94.20;;;;;;10382249;28;20206;-80
2022/09/21 18:29:38;;;;;;;6.57;6.17;;;13.70;95.00;;;;;;10412866;28;20226;-79
2022/09/21 18:34:58;;;;;;;5.63;5.30;;;13.70;94.80;;;;;;10358347;28;20198;-79
2022/09/21 18:40:12;;;;;;;7.00;6.40;;;13.60;94.50;;;;;;10398599;28;20455;-80
2022/09/21 18:45:20;;;;;;;5.70;5.30;;;13.50;94.80;;;;;;10388349;28;20271;-79
2022/09/21 18:50:30;;;;;;;6.83;5.70;;;13.40;95.00;;;;;;10390393;28;20282;-80
2022/09/21 18:55:36;;;;;;;7.27;6.57;;;13.30;96.20;;;;;;10393543;28;20214;-79
2022/09/21 19:00:38;;;;;;;5.40;5.00;;;13.30;96.00;;;;;;10393214;28;20615;-79
2022/09/21 19:05:47;;;;;;;5.50;5.10;;;13.30;96.30;;;;;;10413592;28;20678;-80
2022/09/21 19:11:05;;;;;;;6.00;5.70;;;13.30;96.30;;;;;;10390222;28;20241;-79
2022/09/21 19:16:21;;;;;;;6.00;5.53;;;13.30;95.90;;;;;;10410205;28;20236;-80
2022/09/21 19:21:37;;;;;;;6.80;6.30;;;13.20;96.00;;;;;;10414380;28;20621;-79
2022/09/21 19:26:49;;;;;;;6.37;5.87;;;13.20;96.10;;;;;;10415751;28;20221;-80
2022/09/21 19:31:51;;;;;;;4.87;4.57;;;13.10;96.20;;;;;;10382921;28;20256;-80
2022/09/21 19:36:56;;;;;;;5.53;5.20;;;13.10;96.10;;;;;;10399872;28;20783;-80
2022/09/21 19:42:08;;;;;;;5.93;5.53;;;13.00;96.60;;;;;;10405825;28;20254;-81
2022/09/21 19:47:19;;;;;;;6.90;6.50;;;13.00;96.80;;;;;;10401698;28;20228;-79
2022/09/21 19:52:28;;;;;;;5.70;5.20;;;13.00;96.40;;;;;;10420582;28;20284;-80
2022/09/21 20:03:04;;;;;;;5.10;4.80;;;12.90;96.20;;;;;;10411926;28;20619;-80
2022/09/21 20:08:17;;;;;;;6.00;5.70;;;12.80;95.40;;;;;;10391208;28;20223;-80
2022/09/21 20:13:32;;;;;;;7.00;6.50;;;12.70;95.60;;;;;;10351933;28;20215;-81
2022/09/21 20:18:40;;;;;;;6.23;5.73;;;12.60;95.40;;;;;;10362471;28;20742;-81
2022/09/21 20:23:43;;;;;;;9.70;8.80;;;12.50;96.60;;;;;;10381669;28;20221;-79
2022/09/21 20:28:47;;;;;;;6.73;6.17;;;12.40;97.30;;;;;;10400296;28;20237;-81
2022/09/21 20:33:49;;;;;;;6.60;6.17;;;12.40;96.50;;;;;;10413118;28;20685;-80
2022/09/21 20:38:52;;;;;;;6.17;5.80;;;12.40;96.00;;;;;;10383278;28;20214;-80
2022/09/21 20:43:57;;;;;;;5.33;4.83;;;12.30;96.00;;;;;;10412336;28;20222;-81
2022/09/21 20:49:03;;;;;;;4.37;4.07;;;12.20;97.20;;;;;;10399240;28;20260;-80
2022/09/21 20:54:05;;;;;;;5.03;4.63;;;12.20;96.80;;;;;;10413081;28;20220;-80
2022/09/21 20:59:09;;;;;;;5.73;5.40;;;12.10;96.40;;;;;;10400271;28;20229;-80
2022/09/21 21:04:12;;;;;;;8.10;7.40;;;12.10;96.40;;;;;;10396840;28;20185;-81
2022/09/21 21:09:15;;;;;;;5.70;5.30;;;12.00;96.10;;;;;;10402448;28;20215;-79
2022/09/21 21:14:18;;;;;;;7.77;6.90;;;11.90;96.10;;;;;;10422120;28;20194;-80
2022/09/21 21:19:20;;;;;;;5.83;5.43;;;11.90;97.30;;;;;;10463155;22;20255;-77
2022/09/21 21:29:44;;;;;;;5.07;4.77;;;11.80;97.40;;;;;;10404167;28;20218;-78
2022/09/21 21:34:48;;;;;;;6.23;5.43;;;11.80;96.50;;;;;;10389623;28;20205;-78
2022/09/21 21:39:50;;;;;;;5.00;4.70;;;11.80;96.70;;;;;;10398780;28;20232;-77
2022/09/21 21:44:54;;;;;;;4.07;3.80;;;11.70;96.60;;;;;;10389086;28;20206;-77
2022/09/21 21:49:56;;;;;;;4.47;4.17;;;11.70;96.90;;;;;;10398507;28;20749;-77
2022/09/21 21:54:58;;;;;;;6.10;5.60;;;11.70;97.40;;;;;;10388541;28;20221;-77
2022/09/21 22:00:02;;;;;;;5.70;5.20;;;11.60;98.10;;;;;;10389013;28;20206;-77
2022/09/21 22:05:07;;;;;;;16.67;9.63;;;11.60;97.90;;;;;;10396907;28;20292;-77
2022/09/21 22:10:09;;;;;;;7.47;6.13;;;11.60;97.60;;;;;;10387798;28;20206;-77
2022/09/21 22:15:13;;;;;;;7.27;6.50;;;11.50;97.20;;;;;;10394165;28;20190;-78
2022/09/21 22:20:15;;;;;;;5.60;4.97;;;11.50;97.70;;;;;;10388336;28;20585;-78
2022/09/21 22:25:17;;;;;;;8.10;6.70;;;11.50;97.80;;;;;;10392528;28;20573;-78
2022/09/21 22:30:20;;;;;;;5.40;4.40;;;11.50;97.70;;;;;;10389544;28;20210;-78
2022/09/21 22:35:22;;;;;;;6.83;3.63;;;11.50;97.10;;;;;;10396843;28;20292;-78
2022/09/21 22:40:24;;;;;;;4.90;4.60;;;11.40;96.90;;;;;;10394552;28;20693;-78
2022/09/21 22:45:28;;;;;;;4.07;3.77;;;11.30;97.90;;;;;;10399670;28;21188;-78
2022/09/21 22:50:30;;;;;;;4.60;4.20;;;11.30;98.70;;;;;;10398124;28;20238;-78
2022/09/21 22:55:32;;;;;;;4.60;4.30;;;11.30;98.20;;;;;;10378085;28;20241;-78
2022/09/21 23:00:35;;;;;;;3.90;3.60;;;11.30;98.00;;;;;;10400064;28;20196;-78
2022/09/21 23:05:37;;;;;;;6.50;4.30;;;11.30;98.10;;;;;;10398678;28;20334;-78
2022/09/21 23:10:39;;;;;;;3.67;3.37;;;11.30;97.30;;;;;;10397632;28;20800;-78
2022/09/21 23:15:43;;;;;;;4.17;3.97;;;11.20;97.20;;;;;;10400912;28;20222;-78
2022/09/21 23:20:55;;;;;;;3.60;3.40;;;11.10;98.10;;;;;;10396793;28;20205;-78
2022/09/21 23:26:05;;;;;;;4.90;4.60;;;11.10;98.70;;;;;;10398958;28;20598;-78
2022/09/21 23:31:11;;;;;;;4.80;4.40;;;11.10;98.80;;;;;;10405615;28;20260;-77
2022/09/21 23:36:15;;;;;;;5.87;4.90;;;11.10;98.90;;;;;;10404385;28;20301;-78
2022/09/21 23:41:19;;;;;;;5.20;4.70;;;11.10;98.70;;;;;;10403806;28;20205;-78
2022/09/21 23:46:25;;;;;;;4.27;3.97;;;11.10;98.70;;;;;;10402070;28;20218;-78
2022/09/21 23:51:28;;;;;;;4.67;4.27;;;11.00;98.00;;;;;;10399048;28;20221;-78
2022/09/21 23:56:31;;;;;;;4.47;4.07;;;11.00;98.30;;;;;;10394359;28;20243;-77
